Anglian Lady — VOLP — position and weather

sailwx.info

Track history (hours):
 
Tides and Currents Weather Stations Pressure Air Temp Water Temp Dewpoint Dewpoint Depression Visibility Wind Speed Wind Dir Waves Ship Positions

Anglian Lady

Last reported at 2018-Jan-10 10:13 UTC. Time now 2018-Jan-23 03:53 UTC.
Position N 45°52' W 084°21'.
Warning: this ship's position is 12 days out of date.

Length 32 m.

Type: Tug. MMSI: 316002238.

Date/timePositionNaut miles runAvg speedWind from/ knotsBaromVisibWave heightAir tempDewpointWater temp
2018-Jan-10 10:13N 45°52' W 084°21'2 7.7
2018-Jan-10 10:00N 45°52' W 084°24'4 7.8
2018-Jan-10 09:30N 45°51' W 084°29'4 7.5
2018-Jan-10 08:59N 45°51' W 084°35'3 6.2
2018-Jan-10 08:30N 45°50' W 084°39'3 6.1
2018-Jan-10 08:00N 45°49' W 084°43'2 4.0
2018-Jan-10 07:30N 45°49' W 084°46'2 3.3
2018-Jan-10 07:00N 45°49' W 084°48'0 0.5
2018-Jan-10 06:30N 45°49' W 084°48'0 0.1
2018-Jan-10 06:00N 45°49' W 084°49'0 0.2
2018-Jan-10 05:30N 45°49' W 084°49'1 2.5
2018-Jan-10 04:59N 45°50' W 084°50'4 7.4
2018-Jan-10 04:30N 45°50' W 084°56'2 3.5
2018-Jan-10 04:00N 45°50' W 084°58'4 7.9
2018-Jan-10 03:30N 45°51' W 085°04'4 7.3
2018-Jan-10 03:00N 45°52' W 085°09'4 7.0
2018-Jan-10 02:28N 45°52' W 085°14'3 5.2
2018-Jan-10 01:55N 45°53' W 085°18'1 1.3
2018-Jan-10 01:30N 45°53' W 085°19'0 0.4
2018-Jan-10 01:00N 45°53' W 085°19'0 0.3
2018-Jan-10 00:30N 45°53' W 085°19'0 0.3
2018-Jan-10 00:00N 45°53' W 085°18'0 0.2
2018-Jan-09 23:30N 45°53' W 085°18'0 0.2
2018-Jan-09 23:00N 45°52' W 085°18'0 0.2
2018-Jan-09 22:30N 45°52' W 085°18'0 0.2
2018-Jan-09 22:00N 45°52' W 085°18'0 0.1
2018-Jan-09 21:30N 45°52' W 085°18'0 0.1
2018-Jan-09 21:00N 45°52' W 085°18'0 0.1
2018-Jan-09 20:30N 45°52' W 085°18'0 0.1
2018-Jan-09 20:00N 45°52' W 085°18'0 0.1
2018-Jan-09 19:30N 45°52' W 085°18'0 0.0
2018-Jan-09 19:00N 45°52' W 085°18'0 0.0
2018-Jan-09 18:30N 45°52' W 085°18'0 0.0
2018-Jan-09 17:59N 45°52' W 085°18'0 0.0
2018-Jan-09 17:30N 45°52' W 085°18'0 0.0
2018-Jan-09 17:00N 45°52' W 085°18'0 0.1
2018-Jan-09 16:30N 45°52' W 085°18'0 0.1
2018-Jan-09 15:43N 45°52' W 085°18'  
2017-Dec-31 18:36N 45°53' W 085°27'10 3.4
2017-Dec-31 15:31N 45°52' W 085°12'0 6.7
2017-Dec-31 15:30N 45°52' W 085°12'0 0.4
2017-Dec-31 14:51N 45°52' W 085°12'0 0.1
2017-Dec-31 14:04N 45°52' W 085°12'0 0.1
2017-Dec-31 13:12N 45°52' W 085°12'0 0.0
2017-Dec-31 12:56N 45°52' W 085°12'0 0.0
2017-Dec-31 12:10N 45°52' W 085°12'0 0.0
2017-Dec-31 11:57N 45°52' W 085°12'0 0.0
2017-Dec-31 11:28N 45°52' W 085°12'0 0.0
2017-Dec-31 10:53N 45°52' W 085°12'1 1.2
2017-Dec-31 10:28N 45°51' W 085°11'  
Track history (hours):
 
Tides and Currents Weather Stations Pressure Air Temp Water Temp Dewpoint Dewpoint Depression Visibility Wind Speed Wind Dir Waves Ship Positions

Anglian Lady

Last reported at 2018-Jan-10 10:13 UTC. Time now 2018-Jan-23 03:53 UTC.
Position N 45°52' W 084°21'.
Warning: this ship's position is 12 days out of date.

Length 32 m.

Type: Tug. MMSI: 316002238.

Date/timePositionNaut miles runAvg speedWind from/ knotsBaromVisibWave heightAir tempDewpointWater temp
2018-Jan-10 10:13N 45°52' W 084°21'2 7.7
2018-Jan-10 10:00N 45°52' W 084°24'4 7.8
2018-Jan-10 09:30N 45°51' W 084°29'4 7.5
2018-Jan-10 08:59N 45°51' W 084°35'3 6.2
2018-Jan-10 08:30N 45°50' W 084°39'3 6.1
2018-Jan-10 08:00N 45°49' W 084°43'2 4.0
2018-Jan-10 07:30N 45°49' W 084°46'2 3.3
2018-Jan-10 07:00N 45°49' W 084°48'0 0.5
2018-Jan-10 06:30N 45°49' W 084°48'0 0.1
2018-Jan-10 06:00N 45°49' W 084°49'0 0.2
2018-Jan-10 05:30N 45°49' W 084°49'1 2.5
2018-Jan-10 04:59N 45°50' W 084°50'4 7.4
2018-Jan-10 04:30N 45°50' W 084°56'2 3.5
2018-Jan-10 04:00N 45°50' W 084°58'4 7.9
2018-Jan-10 03:30N 45°51' W 085°04'4 7.3
2018-Jan-10 03:00N 45°52' W 085°09'4 7.0
2018-Jan-10 02:28N 45°52' W 085°14'3 5.2
2018-Jan-10 01:55N 45°53' W 085°18'1 1.3
2018-Jan-10 01:30N 45°53' W 085°19'0 0.4
2018-Jan-10 01:00N 45°53' W 085°19'0 0.3
2018-Jan-10 00:30N 45°53' W 085°19'0 0.3
2018-Jan-10 00:00N 45°53' W 085°18'0 0.2
2018-Jan-09 23:30N 45°53' W 085°18'0 0.2
2018-Jan-09 23:00N 45°52' W 085°18'0 0.2
2018-Jan-09 22:30N 45°52' W 085°18'0 0.2
2018-Jan-09 22:00N 45°52' W 085°18'0 0.1
2018-Jan-09 21:30N 45°52' W 085°18'0 0.1
2018-Jan-09 21:00N 45°52' W 085°18'0 0.1
2018-Jan-09 20:30N 45°52' W 085°18'0 0.1
2018-Jan-09 20:00N 45°52' W 085°18'0 0.1
2018-Jan-09 19:30N 45°52' W 085°18'0 0.0
2018-Jan-09 19:00N 45°52' W 085°18'0 0.0
2018-Jan-09 18:30N 45°52' W 085°18'0 0.0
2018-Jan-09 17:59N 45°52' W 085°18'0 0.0
2018-Jan-09 17:30N 45°52' W 085°18'0 0.0
2018-Jan-09 17:00N 45°52' W 085°18'0 0.1
2018-Jan-09 16:30N 45°52' W 085°18'0 0.1
2018-Jan-09 15:43N 45°52' W 085°18'  
2017-Dec-31 18:36N 45°53' W 085°27'10 3.4
2017-Dec-31 15:31N 45°52' W 085°12'0 6.7
2017-Dec-31 15:30N 45°52' W 085°12'0 0.4
2017-Dec-31 14:51N 45°52' W 085°12'0 0.1
2017-Dec-31 14:04N 45°52' W 085°12'0 0.1
2017-Dec-31 13:12N 45°52' W 085°12'0 0.0
2017-Dec-31 12:56N 45°52' W 085°12'0 0.0
2017-Dec-31 12:10N 45°52' W 085°12'0 0.0
2017-Dec-31 11:57N 45°52' W 085°12'0 0.0
2017-Dec-31 11:28N 45°52' W 085°12'0 0.0
2017-Dec-31 10:53N 45°52' W 085°12'1 1.2
2017-Dec-31 10:28N 45°51' W 085°11'  

Dump ship's entire track history